Time;durP1;ratioP1;P1;durP2;ratioP2;P2;SDS_P1;SDS_P2;PMS_P1;PMS_P2;Temp;Humidity;BMP_temperature;BMP_pressure;BME280_temperature;BME280_humidity;BME280_pressure;Samples;Min_cycle;Max_cycle;Signal;HPM_P1;HPM_P2
2024/02/04 00:01:33;;;;;;;5.87;2.80;;;8.90;1.00;;;;;;5092468;27;20457;-73
2024/02/04 00:04:02;;;;;;;5.87;2.80;;;8.90;1.00;;;;;;5088580;27;20516;-72
2024/02/04 00:06:29;;;;;;;9.47;3.33;;;8.80;1.00;;;;;;5089682;28;20476;-71
2024/02/04 00:08:56;;;;;;;8.07;3.60;;;8.70;1.00;;;;;;5089056;28;20554;-71
2024/02/04 00:11:23;;;;;;;9.60;3.63;;;8.60;1.00;;;;;;5106514;27;20598;-71
2024/02/04 00:13:50;;;;;;;7.20;3.00;;;8.60;1.00;;;;;;5107850;27;20869;-74
2024/02/04 00:16:17;;;;;;;7.33;2.73;;;8.50;1.00;;;;;;5105630;27;20445;-72
2024/02/04 00:18:44;;;;;;;9.17;2.70;;;8.60;1.00;;;;;;5106234;27;20472;-74
2024/02/04 00:21:12;;;;;;;6.97;2.70;;;8.60;1.00;;;;;;5106064;27;21038;-72
2024/02/04 00:23:39;;;;;;;8.70;3.00;;;8.70;1.00;;;;;;5107793;27;21581;-71
2024/02/04 00:26:06;;;;;;;6.00;2.63;;;8.70;1.00;;;;;;5106948;27;20534;-71
2024/02/04 00:28:33;;;;;;;11.33;3.17;;;8.80;1.00;;;;;;5106061;27;20454;-73
2024/02/04 00:31:00;;;;;;;5.10;2.27;;;8.80;1.00;;;;;;5106320;27;20972;-71
2024/02/04 00:33:27;;;;;;;9.03;2.93;;;8.70;1.00;;;;;;5106899;27;20456;-72
2024/02/04 00:35:54;;;;;;;8.23;3.50;;;8.60;1.00;;;;;;5107668;27;20497;-74
2024/02/04 00:38:22;;;;;;;8.03;2.93;;;8.60;1.00;;;;;;5107265;27;20533;-72
2024/02/04 00:40:49;;;;;;;6.07;2.80;;;8.60;1.00;;;;;;5109123;27;20537;-71
2024/02/04 00:43:16;;;;;;;7.17;3.20;;;8.60;1.00;;;;;;5107468;27;20541;-71
2024/02/04 00:45:43;;;;;;;8.70;3.00;;;8.50;1.00;;;;;;5109762;27;20482;-72
2024/02/04 00:48:10;;;;;;;6.27;2.83;;;8.50;1.00;;;;;;5107594;27;20458;-73
2024/02/04 00:50:37;;;;;;;6.37;2.90;;;8.50;1.00;;;;;;5107502;27;20450;-71
2024/02/04 00:53:04;;;;;;;8.43;3.20;;;8.40;1.00;;;;;;5107921;27;20461;-72
2024/02/04 00:55:33;;;;;;;10.73;3.60;;;8.40;1.00;;;;;;5105616;27;20446;-73
2024/02/04 00:58:02;;;;;;;5.53;2.93;;;8.30;1.00;;;;;;5104981;27;20587;-72
2024/02/04 01:00:29;;;;;;;5.50;2.83;;;8.20;1.00;;;;;;5106785;27;20441;-71
2024/02/04 01:02:56;;;;;;;11.33;3.07;;;8.20;1.00;;;;;;5106074;27;20865;-74
2024/02/04 01:05:22;;;;;;;10.47;3.57;;;8.10;1.00;;;;;;5105645;27;20434;-75
2024/02/04 01:07:50;;;;;;;9.20;2.93;;;8.00;1.00;;;;;;5106702;27;20532;-75
2024/02/04 01:10:17;;;;;;;11.90;3.10;;;8.00;1.00;;;;;;5096129;27;20455;-76
2024/02/04 01:12:46;;;;;;;6.63;2.80;;;7.90;1.00;;;;;;5089391;28;20561;-76
2024/02/04 01:15:12;;;;;;;9.63;2.90;;;7.90;1.00;;;;;;5092674;28;20490;-76
2024/02/04 01:17:39;;;;;;;13.47;3.70;;;7.80;1.00;;;;;;5088519;28;20562;-75
2024/02/04 01:20:07;;;;;;;9.77;3.22;;;7.70;1.00;;;;;;5088826;28;20472;-75
2024/02/04 01:22:35;;;;;;;7.27;2.80;;;7.70;1.00;;;;;;5088563;28;20239;-76
2024/02/04 01:25:02;;;;;;;8.13;2.67;;;7.60;1.00;;;;;;5090534;28;20541;-75
2024/02/04 01:27:29;;;;;;;11.63;3.70;;;7.60;1.00;;;;;;5093802;28;20478;-76
2024/02/04 01:29:57;;;;;;;6.57;3.00;;;7.60;1.00;;;;;;5086259;28;20548;-75
2024/02/04 01:32:24;;;;;;;9.50;3.03;;;7.50;1.00;;;;;;5090242;28;20560;-75
2024/02/04 01:34:51;;;;;;;5.50;2.50;;;7.50;1.00;;;;;;5087360;28;20258;-75
2024/02/04 01:37:18;;;;;;;6.78;3.13;;;7.50;1.00;;;;;;5087670;28;20289;-76
2024/02/04 01:39:45;;;;;;;8.30;3.07;;;7.50;1.00;;;;;;5089575;28;20711;-74
2024/02/04 01:42:12;;;;;;;7.07;2.40;;;7.60;1.00;;;;;;5084801;28;20483;-76
2024/02/04 01:44:39;;;;;;;5.00;2.90;;;7.60;1.00;;;;;;5091881;28;20550;-75
2024/02/04 01:47:07;;;;;;;9.40;3.03;;;7.70;1.00;;;;;;5091661;28;21339;-75
2024/02/04 01:49:35;;;;;;;7.00;3.13;;;7.70;1.00;;;;;;5082012;28;20450;-75
2024/02/04 01:52:03;;;;;;;7.63;2.40;;;7.70;1.00;;;;;;5086470;28;20482;-75
2024/02/04 01:54:32;;;;;;;16.63;5.17;;;7.70;1.00;;;;;;5097986;28;20601;-76
2024/02/04 01:57:01;;;;;;;9.83;2.90;;;7.70;1.00;;;;;;5096746;28;20473;-75
2024/02/04 01:59:30;;;;;;;8.97;3.20;;;7.60;1.00;;;;;;5097342;28;20458;-75
2024/02/04 02:01:58;;;;;;;9.53;3.40;;;7.50;1.00;;;;;;5092139;28;21649;-74
2024/02/04 02:04:27;;;;;;;9.33;4.07;;;7.50;1.00;;;;;;5095758;28;20455;-74
2024/02/04 02:06:54;;;;;;;11.23;3.10;;;7.50;1.00;;;;;;5091994;28;20935;-75
2024/02/04 02:09:22;;;;;;;7.40;2.50;;;7.40;1.00;;;;;;5091260;28;20344;-75
2024/02/04 02:11:56;;;;;;;5.43;2.80;;;7.40;1.00;;;;;;5088577;28;20248;-75
2024/02/04 02:14:27;;;;;;;7.27;3.20;;;7.30;1.00;;;;;;5087854;28;20318;-76
2024/02/04 02:16:58;;;;;;;11.05;3.08;;;7.30;1.00;;;;;;5088489;28;20512;-76
2024/02/04 02:19:46;;;;;;;8.13;3.03;;;7.30;1.00;;;;;;5087405;28;20241;-75
2024/02/04 02:22:24;;;;;;;6.43;2.90;;;7.30;1.00;;;;;;5089266;28;20557;-75
2024/02/04 02:24:53;;;;;;;6.30;3.43;;;7.30;1.00;;;;;;5089354;28;20473;-76
2024/02/04 02:27:20;;;;;;;7.80;3.75;;;7.30;1.00;;;;;;5088092;28;20458;-75
2024/02/04 02:29:47;;;;;;;10.55;3.83;;;7.30;1.00;;;;;;5087688;27;20368;-76
2024/02/04 02:32:15;;;;;;;6.67;2.80;;;7.20;1.00;;;;;;5090291;28;20244;-75
2024/02/04 02:34:42;;;;;;;4.35;2.55;;;7.20;1.00;;;;;;5087835;27;20530;-76
2024/02/04 02:37:21;;;;;;;8.87;3.00;;;7.20;1.00;;;;;;5086304;28;20247;-74
2024/02/04 02:39:56;;;;;;;12.35;3.13;;;7.10;1.00;;;;;;5089979;28;20459;-74
2024/02/04 02:42:24;;;;;;;5.20;2.63;;;7.10;1.00;;;;;;5087022;28;20235;-75
2024/02/04 02:44:53;;;;;;;6.70;2.50;;;7.10;1.00;;;;;;5086151;28;20458;-75
2024/02/04 02:47:21;;;;;;;11.18;4.15;;;7.10;1.00;;;;;;5085977;28;21557;-75
2024/02/04 02:49:48;;;;;;;6.35;3.20;;;7.10;1.00;;;;;;5090828;28;21042;-75
2024/02/04 02:52:15;;;;;;;9.53;3.70;;;7.10;1.00;;;;;;5087348;28;20300;-75
2024/02/04 02:54:43;;;;;;;9.67;3.73;;;7.10;1.00;;;;;;5089525;27;20494;-76
2024/02/04 02:57:11;;;;;;;8.30;3.90;;;7.10;1.00;;;;;;5086295;28;20996;-78
2024/02/04 02:59:38;;;;;;;9.75;3.28;;;7.20;1.00;;;;;;5087576;28;20564;-74
2024/02/04 03:02:05;;;;;;;9.23;3.57;;;7.20;1.00;;;;;;5086973;28;20240;-73
2024/02/04 03:04:32;;;;;;;9.07;3.23;;;7.20;1.00;;;;;;5088849;28;20482;-76
2024/02/04 03:06:59;;;;;;;5.83;2.87;;;7.20;1.00;;;;;;5088182;27;20505;-75
2024/02/04 03:09:26;;;;;;;8.27;3.75;;;7.20;1.00;;;;;;5094752;28;20449;-76
2024/02/04 03:11:53;;;;;;;11.25;3.53;;;7.20;1.00;;;;;;5112903;27;20245;-75
2024/02/04 03:14:21;;;;;;;9.27;3.10;;;7.30;1.00;;;;;;5109620;27;20272;-76
2024/02/04 03:16:48;;;;;;;9.30;3.60;;;7.30;1.00;;;;;;5107764;27;20488;-74
2024/02/04 03:19:15;;;;;;;17.88;4.43;;;7.40;1.00;;;;;;5104419;27;20516;-75
2024/02/04 03:21:42;;;;;;;6.07;3.10;;;7.40;1.00;;;;;;5108476;27;20326;-75
2024/02/04 03:24:09;;;;;;;5.73;3.50;;;7.50;1.00;;;;;;5109861;27;22015;-75
2024/02/04 03:26:35;;;;;;;7.25;3.40;;;7.50;1.00;;;;;;5111429;27;20464;-76
2024/02/04 03:29:04;;;;;;;6.93;3.83;;;7.50;1.00;;;;;;5109714;27;20324;-77
2024/02/04 03:31:32;;;;;;;5.80;3.23;;;7.50;1.00;;;;;;5104520;27;20267;-74
2024/02/04 03:33:59;;;;;;;6.07;3.65;;;7.50;1.00;;;;;;5107082;27;20538;-75
2024/02/04 03:36:26;;;;;;;10.23;4.07;;;7.50;1.00;;;;;;5106899;27;20345;-74
2024/02/04 03:38:53;;;;;;;6.32;3.40;;;7.60;1.00;;;;;;5107975;27;20497;-76
2024/02/04 03:41:20;;;;;;;3.80;2.97;;;7.60;1.00;;;;;;5104474;27;20238;-76
2024/02/04 03:43:47;;;;;;;5.33;4.13;;;7.60;1.00;;;;;;5105315;27;20485;-76
2024/02/04 03:46:15;;;;;;;9.60;4.10;;;7.60;1.00;;;;;;5108317;27;20474;-75
2024/02/04 03:48:44;;;;;;;7.93;3.97;;;7.70;1.00;;;;;;5109386;27;22061;-75
2024/02/04 03:51:16;;;;;;;7.73;3.17;;;7.70;1.00;;;;;;5108419;27;20243;-75
2024/02/04 03:53:43;;;;;;;9.63;3.67;;;7.60;1.00;;;;;;5109054;27;20554;-75
2024/02/04 03:56:10;;;;;;;9.83;3.80;;;7.60;1.00;;;;;;5106911;27;20497;-75
2024/02/04 03:58:37;;;;;;;8.80;4.00;;;7.70;1.00;;;;;;5107319;27;20452;-75
2024/02/04 04:01:05;;;;;;;7.40;3.27;;;7.70;1.00;;;;;;5108754;27;20546;-75
2024/02/04 04:03:31;;;;;;;8.40;3.33;;;7.70;1.00;;;;;;5106984;27;21109;-80
2024/02/04 04:06:00;;;;;;;5.70;2.60;;;7.70;1.00;;;;;;5104700;27;20563;-75
2024/02/04 04:08:27;;;;;;;7.07;3.63;;;7.70;1.00;;;;;;5105754;27;20464;-73
2024/02/04 04:10:53;;;;;;;7.82;3.92;;;7.60;1.00;;;;;;5093548;27;20243;-75
2024/02/04 04:13:20;;;;;;;7.35;3.53;;;7.60;1.00;;;;;;5087450;28;20453;-75
2024/02/04 04:15:47;;;;;;;6.93;3.53;;;7.50;1.00;;;;;;5090443;28;20254;-75
2024/02/04 04:18:14;;;;;;;5.78;3.03;;;7.40;1.00;;;;;;5087019;28;20545;-74
2024/02/04 04:20:41;;;;;;;7.40;3.10;;;7.40;1.00;;;;;;5084312;28;20317;-75
2024/02/04 04:23:10;;;;;;;4.70;2.93;;;7.40;1.00;;;;;;5083517;28;20298;-76
2024/02/04 04:25:37;;;;;;;6.07;3.77;;;7.30;1.00;;;;;;5088674;28;20497;-75
2024/02/04 04:28:04;;;;;;;8.05;4.20;;;7.30;1.00;;;;;;5087327;28;20482;-75
2024/02/04 04:30:31;;;;;;;5.03;2.80;;;7.20;1.00;;;;;;5089421;28;20248;-75
2024/02/04 04:32:58;;;;;;;8.33;3.60;;;7.20;1.00;;;;;;5088716;28;20566;-75
2024/02/04 04:35:25;;;;;;;5.87;2.80;;;7.20;1.00;;;;;;5087663;28;20596;-72
2024/02/04 04:37:53;;;;;;;8.45;3.20;;;7.20;1.00;;;;;;5088392;28;20466;-73
2024/02/04 04:40:21;;;;;;;4.90;3.13;;;7.10;1.00;;;;;;5087368;28;20262;-72
2024/02/04 04:42:48;;;;;;;4.90;3.00;;;7.20;1.00;;;;;;5088723;28;20461;-72
2024/02/04 04:45:15;;;;;;;7.07;3.40;;;7.10;1.00;;;;;;5090411;28;20485;-74
2024/02/04 04:47:43;;;;;;;7.65;3.35;;;7.10;1.00;;;;;;5085113;28;21117;-73
2024/02/04 04:50:10;;;;;;;5.93;3.70;;;7.10;1.00;;;;;;5083508;28;20334;-72
2024/02/04 04:52:37;;;;;;;6.80;3.80;;;7.00;1.00;;;;;;5092078;28;20452;-73
2024/02/04 04:55:04;;;;;;;6.18;3.08;;;7.00;1.00;;;;;;5086936;28;20470;-73
2024/02/04 04:57:32;;;;;;;9.68;3.75;;;7.00;1.00;;;;;;5088841;28;20243;-74
2024/02/04 05:00:04;;;;;;;10.93;3.58;;;7.00;1.00;;;;;;5083470;28;20318;-75
2024/02/04 05:02:31;;;;;;;8.13;2.33;;;7.00;1.00;;;;;;5085078;28;20245;-72
2024/02/04 05:04:57;;;;;;;8.65;3.50;;;7.00;1.00;;;;;;5083737;28;21408;-72
2024/02/04 05:07:25;;;;;;;6.72;3.05;;;7.00;1.00;;;;;;5084182;28;21057;-73
2024/02/04 05:09:52;;;;;;;6.78;3.65;;;7.00;1.00;;;;;;5092952;27;20771;-73
2024/02/04 05:12:19;;;;;;;6.57;3.03;;;7.00;1.00;;;;;;5108290;27;20320;-72
2024/02/04 05:14:49;;;;;;;7.30;2.60;;;7.00;1.00;;;;;;5105253;27;20291;-72
2024/02/04 05:17:16;;;;;;;5.18;2.50;;;6.90;1.00;;;;;;5106334;27;20237;-72
2024/02/04 05:19:43;;;;;;;9.43;2.90;;;6.90;1.00;;;;;;5107661;27;20301;-72
2024/02/04 05:22:10;;;;;;;5.50;2.60;;;6.90;1.00;;;;;;5109045;27;20245;-72
2024/02/04 05:24:37;;;;;;;5.90;2.28;;;6.90;1.00;;;;;;5113038;27;21048;-72
2024/02/04 05:27:05;;;;;;;5.13;2.97;;;6.80;1.00;;;;;;5108881;27;20262;-72
2024/02/04 05:29:32;;;;;;;7.33;2.33;;;6.90;1.00;;;;;;5108543;27;20248;-74
2024/02/04 05:32:00;;;;;;;8.32;3.10;;;6.90;1.00;;;;;;5111212;27;20526;-72
2024/02/04 05:34:30;;;;;;;5.25;3.38;;;6.90;1.00;;;;;;5108373;27;20911;-74
2024/02/04 05:36:57;;;;;;;4.13;2.20;;;6.80;1.00;;;;;;5105983;27;20244;-73
2024/02/04 05:39:24;;;;;;;5.43;2.07;;;6.80;1.00;;;;;;5108979;27;20497;-72
2024/02/04 05:41:51;;;;;;;5.93;2.67;;;6.80;1.00;;;;;;5108467;27;20472;-73
2024/02/04 05:44:18;;;;;;;5.18;2.58;;;6.80;1.00;;;;;;5107093;27;20493;-75
2024/02/04 05:46:45;;;;;;;5.10;2.35;;;6.80;1.00;;;;;;5107780;27;20327;-74
2024/02/04 05:49:14;;;;;;;7.53;3.13;;;6.80;1.00;;;;;;5108158;27;20240;-75
2024/02/04 05:51:42;;;;;;;5.07;2.60;;;6.80;1.00;;;;;;5113057;27;20949;-75
2024/02/04 05:54:10;;;;;;;7.57;2.60;;;6.80;1.00;;;;;;5096235;27;20545;-75
2024/02/04 05:56:37;;;;;;;4.70;2.67;;;6.80;1.00;;;;;;5114482;27;20264;-76
2024/02/04 05:59:04;;;;;;;4.80;2.88;;;6.90;1.00;;;;;;5113082;27;22221;-76
2024/02/04 06:01:30;;;;;;;5.77;3.37;;;6.90;1.00;;;;;;5108328;27;20968;-74
2024/02/04 06:03:57;;;;;;;4.37;2.73;;;6.90;1.00;;;;;;5113040;27;20563;-75
2024/02/04 06:06:26;;;;;;;7.73;2.70;;;6.90;1.00;;;;;;5111268;27;20456;-75
2024/02/04 06:08:53;;;;;;;5.20;3.03;;;7.00;1.00;;;;;;5114852;27;20451;-74
2024/02/04 06:11:20;;;;;;;4.40;2.70;;;7.00;1.00;;;;;;5109497;27;20293;-74
2024/02/04 06:13:47;;;;;;;8.37;3.53;;;6.90;1.00;;;;;;5110508;27;21408;-74
2024/02/04 06:16:14;;;;;;;5.10;2.70;;;6.90;1.00;;;;;;5112130;27;20553;-75
2024/02/04 06:18:40;;;;;;;6.80;3.30;;;6.90;1.00;;;;;;5111209;27;20239;-75
2024/02/04 06:21:08;;;;;;;7.77;3.20;;;6.90;1.00;;;;;;5111251;27;20436;-75
2024/02/04 06:23:38;;;;;;;5.87;3.00;;;7.00;1.00;;;;;;5112718;27;20642;-76
2024/02/04 06:26:06;;;;;;;6.63;3.00;;;7.00;1.00;;;;;;5110617;27;20487;-75
2024/02/04 06:28:33;;;;;;;9.25;3.97;;;7.10;1.00;;;;;;5107896;27;20441;-75
2024/02/04 06:31:00;;;;;;;4.07;2.70;;;7.10;1.00;;;;;;5109088;27;20238;-75
2024/02/04 06:33:27;;;;;;;6.10;2.37;;;7.10;1.00;;;;;;5110091;27;20490;-75
2024/02/04 06:35:54;;;;;;;6.60;3.00;;;7.10;1.00;;;;;;5111477;27;20991;-76
2024/02/04 06:38:21;;;;;;;12.73;3.08;;;7.00;1.00;;;;;;5110810;27;20236;-76
2024/02/04 06:40:49;;;;;;;5.85;3.28;;;7.00;1.00;;;;;;5110035;27;20245;-75
2024/02/04 06:43:16;;;;;;;7.20;2.75;;;7.00;1.00;;;;;;5109287;27;20337;-75
2024/02/04 06:45:43;;;;;;;7.20;3.33;;;7.00;1.00;;;;;;5113994;27;20240;-75
2024/02/04 06:48:11;;;;;;;13.57;3.70;;;7.10;1.00;;;;;;5113087;27;21032;-76
2024/02/04 06:50:38;;;;;;;9.67;4.17;;;7.10;1.00;;;;;;5112246;27;20472;-74
2024/02/04 06:53:07;;;;;;;6.72;3.92;;;7.00;1.00;;;;;;5106976;27;21042;-72
2024/02/04 06:55:34;;;;;;;6.10;4.30;;;7.00;1.00;;;;;;5111220;27;20263;-72
2024/02/04 06:58:03;;;;;;;6.18;4.38;;;7.00;1.00;;;;;;5110995;27;20760;-72
2024/02/04 07:00:30;;;;;;;6.90;4.50;;;7.10;1.00;;;;;;5112731;27;20309;-72
2024/02/04 07:02:56;;;;;;;6.57;4.60;;;7.00;1.00;;;;;;5106064;27;20567;-73
2024/02/04 07:05:24;;;;;;;11.57;4.57;;;7.10;1.00;;;;;;5105544;27;20796;-72
2024/02/04 07:07:52;;;;;;;6.30;4.38;;;7.10;1.00;;;;;;5108587;27;20242;-73
2024/02/04 07:10:18;;;;;;;6.00;5.10;;;7.10;1.00;;;;;;5108995;27;20324;-73
2024/02/04 07:12:45;;;;;;;10.65;5.03;;;7.10;1.00;;;;;;5108167;27;20558;-72
2024/02/04 07:15:14;;;;;;;6.30;4.70;;;7.20;1.00;;;;;;5106665;27;20338;-70
2024/02/04 07:17:41;;;;;;;6.18;5.10;;;7.20;1.00;;;;;;5110572;27;21058;-77
2024/02/04 07:20:09;;;;;;;8.97;5.37;;;7.20;1.00;;;;;;5109913;27;20253;-72
2024/02/04 07:22:36;;;;;;;8.27;4.70;;;7.20;1.00;;;;;;5104868;27;20970;-72
2024/02/04 07:25:03;;;;;;;9.17;5.60;;;7.20;1.00;;;;;;5109765;27;20452;-72
2024/02/04 07:27:30;;;;;;;8.97;6.63;;;7.20;1.00;;;;;;5104816;27;20449;-72
2024/02/04 07:29:58;;;;;;;7.10;4.40;;;7.20;1.00;;;;;;5109140;27;20588;-72
2024/02/04 07:32:26;;;;;;;12.17;5.50;;;7.30;1.00;;;;;;5106533;27;20481;-73
2024/02/04 07:34:54;;;;;;;8.13;5.47;;;7.30;1.00;;;;;;5105408;27;20419;-74
2024/02/04 07:37:21;;;;;;;8.10;5.23;;;7.30;1.00;;;;;;5104444;27;20545;-74
2024/02/04 07:39:48;;;;;;;7.43;5.50;;;7.40;1.00;;;;;;5107082;27;21005;-71
2024/02/04 07:42:15;;;;;;;8.23;5.27;;;7.40;1.00;;;;;;5102244;27;21013;-71
2024/02/04 07:44:41;;;;;;;9.63;5.03;;;7.40;1.00;;;;;;5104161;27;20457;-72
2024/02/04 07:47:08;;;;;;;10.03;5.40;;;7.50;1.00;;;;;;5104070;27;20560;-72
2024/02/04 07:49:37;;;;;;;9.30;4.90;;;7.50;1.00;;;;;;5107010;27;20452;-72
2024/02/04 07:52:04;;;;;;;9.20;5.03;;;7.60;1.00;;;;;;5107744;27;20569;-72
2024/02/04 07:54:31;;;;;;;8.52;5.90;;;7.60;1.00;;;;;;5108439;27;21032;-73
2024/02/04 07:56:58;;;;;;;7.23;5.10;;;7.70;1.00;;;;;;5107434;27;20292;-72
2024/02/04 07:59:25;;;;;;;6.47;4.90;;;7.70;1.00;;;;;;5106816;27;20505;-72
2024/02/04 08:01:52;;;;;;;8.70;4.97;;;7.70;1.00;;;;;;5107236;27;21044;-72
2024/02/04 08:04:19;;;;;;;9.23;5.10;;;7.70;1.00;;;;;;5106529;27;21263;-72
2024/02/04 08:06:48;;;;;;;8.73;4.93;;;7.70;1.00;;;;;;5106337;27;21145;-73
2024/02/04 08:09:15;;;;;;;8.37;4.60;;;7.80;1.00;;;;;;5108366;27;21339;-72
2024/02/04 08:11:41;;;;;;;10.57;5.13;;;7.90;1.00;;;;;;5107994;27;20570;-76
2024/02/04 08:14:09;;;;;;;6.18;4.72;;;8.00;1.00;;;;;;5106875;27;21218;-71
2024/02/04 08:16:36;;;;;;;8.20;4.83;;;8.00;1.00;;;;;;5108757;27;20686;-73
2024/02/04 08:19:05;;;;;;;9.40;5.47;;;8.10;1.00;;;;;;5109502;27;20451;-72
2024/02/04 08:21:33;;;;;;;11.47;5.67;;;8.20;1.00;;;;;;5110927;27;20533;-71
2024/02/04 08:24:01;;;;;;;9.40;5.50;;;8.30;1.00;;;;;;5109075;27;20454;-74
2024/02/04 08:26:28;;;;;;;10.43;5.13;;;8.30;1.00;;;;;;5110331;27;20507;-73
2024/02/04 08:28:54;;;;;;;7.03;4.70;;;8.40;1.00;;;;;;5109186;27;20476;-70
2024/02/04 08:31:22;;;;;;;8.53;5.00;;;8.40;1.00;;;;;;5110545;27;20553;-71
2024/02/04 08:33:49;;;;;;;11.33;5.00;;;8.40;1.00;;;;;;5109492;27;20450;-72
2024/02/04 08:36:16;;;;;;;8.67;4.97;;;8.40;1.00;;;;;;5108694;27;20507;-71
2024/02/04 08:38:42;;;;;;;9.53;4.57;;;8.40;1.00;;;;;;5110064;27;21244;-71
2024/02/04 08:41:11;;;;;;;6.83;3.80;;;8.40;1.00;;;;;;5111845;27;20457;-73
2024/02/04 08:43:38;;;;;;;8.30;3.93;;;8.40;1.00;;;;;;5110754;27;20540;-72
2024/02/04 08:46:06;;;;;;;6.60;3.77;;;8.50;1.00;;;;;;5109398;27;20462;-72
2024/02/04 08:48:33;;;;;;;7.13;3.60;;;8.50;1.00;;;;;;5108749;27;20469;-70
2024/02/04 08:51:00;;;;;;;5.00;3.50;;;8.50;1.00;;;;;;5107935;27;20540;-72
2024/02/04 08:53:27;;;;;;;7.20;3.87;;;8.50;1.00;;;;;;5107311;27;20548;-72
2024/02/04 08:55:54;;;;;;;10.27;4.20;;;8.50;1.00;;;;;;5109742;27;20538;-72
2024/02/04 08:58:23;;;;;;;7.93;3.47;;;8.60;1.00;;;;;;5106269;27;20537;-74
2024/02/04 09:00:50;;;;;;;10.17;3.70;;;8.60;1.00;;;;;;5106781;27;20469;-73
2024/02/04 09:03:17;;;;;;;11.43;3.40;;;8.60;1.00;;;;;;5108542;27;20536;-70
2024/02/04 09:05:44;;;;;;;9.97;3.33;;;8.60;1.00;;;;;;5110359;27;20500;-71
2024/02/04 09:08:11;;;;;;;8.23;3.37;;;8.70;1.00;;;;;;5105012;27;20426;-71
2024/02/04 09:10:38;;;;;;;5.13;3.43;;;8.60;1.00;;;;;;5104477;27;21238;-72
2024/02/04 09:13:05;;;;;;;8.67;3.60;;;8.70;1.00;;;;;;5104896;27;20452;-71
2024/02/04 09:15:33;;;;;;;6.40;3.30;;;8.70;1.00;;;;;;5107293;27;20980;-76
2024/02/04 09:18:00;;;;;;;9.83;3.40;;;8.80;1.00;;;;;;5105539;27;20562;-74
2024/02/04 09:20:27;;;;;;;7.90;3.40;;;8.70;1.00;;;;;;5109608;27;20466;-74
2024/02/04 09:22:54;;;;;;;5.33;3.00;;;8.80;1.00;;;;;;5109090;27;20504;-74
2024/02/04 09:25:21;;;;;;;9.63;3.83;;;8.80;1.00;;;;;;5107191;27;20465;-74
2024/02/04 09:27:48;;;;;;;6.30;4.00;;;8.80;1.00;;;;;;5107601;27;20845;-74
2024/02/04 09:30:15;;;;;;;9.90;3.20;;;8.90;1.00;;;;;;5109014;28;20574;-74
2024/02/04 09:32:43;;;;;;;4.80;3.33;;;9.00;1.00;;;;;;5107881;27;21228;-75
2024/02/04 09:35:11;;;;;;;9.20;3.90;;;9.10;1.00;;;;;;5107581;27;20527;-73
2024/02/04 09:37:38;;;;;;;6.77;3.93;;;9.20;1.00;;;;;;5106523;27;20449;-74
2024/02/04 09:40:05;;;;;;;5.77;2.63;;;9.20;1.00;;;;;;5104898;27;20527;-74
2024/02/04 09:42:32;;;;;;;8.53;3.53;;;9.30;1.00;;;;;;5109238;27;21043;-76
2024/02/04 09:44:59;;;;;;;5.73;2.70;;;9.40;1.00;;;;;;5110111;27;20708;-75
2024/02/04 09:47:27;;;;;;;7.93;3.43;;;9.40;1.00;;;;;;5104649;27;20449;-78
2024/02/04 09:49:56;;;;;;;5.47;2.87;;;9.50;1.00;;;;;;5111660;27;20549;-76
2024/02/04 09:52:30;;;;;;;6.17;2.73;;;9.60;1.00;;;;;;5107355;27;20442;-76
2024/02/04 09:55:00;;;;;;;5.67;2.73;;;9.80;1.00;;;;;;5111307;28;20471;-77
2024/02/04 09:57:27;;;;;;;5.60;2.30;;;9.80;1.00;;;;;;5108449;27;20549;-74
2024/02/04 09:59:54;;;;;;;8.50;2.60;;;9.70;1.00;;;;;;5109452;27;20492;-79
2024/02/04 10:02:22;;;;;;;6.50;2.57;;;9.80;1.00;;;;;;5109069;27;20453;-78
2024/02/04 10:04:49;;;;;;;5.80;2.40;;;9.70;1.00;;;;;;5106819;27;20543;-77
2024/02/04 10:07:19;;;;;;;5.73;2.77;;;9.80;1.00;;;;;;5112332;27;20450;-78
2024/02/04 10:09:46;;;;;;;7.20;2.57;;;9.70;1.00;;;;;;5110689;27;20970;-76
2024/02/04 10:12:13;;;;;;;5.53;2.20;;;9.50;1.00;;;;;;5089207;28;20463;-77
2024/02/04 10:14:40;;;;;;;6.50;2.87;;;9.50;1.00;;;;;;5088817;28;21185;-78
2024/02/04 10:17:07;;;;;;;6.20;2.60;;;9.60;1.00;;;;;;5092077;28;20463;-76
2024/02/04 10:19:34;;;;;;;4.50;1.90;;;9.60;1.00;;;;;;5094376;28;20582;-78
2024/02/04 10:22:02;;;;;;;3.20;1.83;;;9.60;1.00;;;;;;5092858;27;20540;-75
2024/02/04 10:24:31;;;;;;;4.00;2.10;;;9.70;1.00;;;;;;5090643;28;21055;-73
2024/02/04 10:26:59;;;;;;;3.97;1.90;;;9.90;1.00;;;;;;5092147;28;20446;-72
2024/02/04 10:29:26;;;;;;;5.67;1.70;;;9.90;1.00;;;;;;5087118;27;20524;-73
2024/02/04 10:31:56;;;;;;;3.57;1.70;;;9.90;1.00;;;;;;5091410;28;20450;-73
2024/02/04 10:34:24;;;;;;;2.73;1.50;;;10.00;1.00;;;;;;5089639;28;21195;-72
2024/02/04 10:36:51;;;;;;;4.17;2.00;;;10.10;1.00;;;;;;5092684;28;20454;-72
2024/02/04 10:39:18;;;;;;;5.80;1.67;;;10.10;1.00;;;;;;5073597;28;20547;-72
2024/02/04 10:41:51;;;;;;;6.43;2.00;;;10.00;1.00;;;;;;5090758;28;20439;-72
2024/02/04 10:44:23;;;;;;;4.67;2.30;;;10.00;1.00;;;;;;5085501;27;21589;-73
2024/02/04 10:46:51;;;;;;;4.80;1.80;;;10.10;1.00;;;;;;5087367;28;20938;-73
2024/02/04 10:49:20;;;;;;;4.50;1.90;;;10.10;1.00;;;;;;5088096;28;20524;-72
2024/02/04 10:51:47;;;;;;;2.93;2.03;;;10.20;1.00;;;;;;5091748;28;21042;-71
2024/02/04 10:54:17;;;;;;;3.43;1.73;;;10.20;1.00;;;;;;5091401;28;20528;-72
2024/02/04 10:56:47;;;;;;;4.80;2.27;;;10.10;1.00;;;;;;5088754;28;20521;-74
2024/02/04 10:59:19;;;;;;;4.33;2.33;;;10.10;1.00;;;;;;5085650;28;20554;-73
2024/02/04 11:01:48;;;;;;;2.40;1.33;;;10.20;1.00;;;;;;5088371;28;20477;-73
2024/02/04 11:04:18;;;;;;;3.40;1.83;;;10.10;1.00;;;;;;5079320;28;20546;-73
2024/02/04 11:06:45;;;;;;;10.00;2.57;;;10.00;1.00;;;;;;5092787;28;21083;-73
2024/02/04 11:09:14;;;;;;;4.43;2.30;;;10.00;1.00;;;;;;5088778;28;21123;-73
2024/02/04 11:11:42;;;;;;;8.00;2.63;;;10.00;1.00;;;;;;5092452;28;21324;-74
2024/02/04 11:14:14;;;;;;;5.27;1.97;;;10.00;1.00;;;;;;5090441;28;20494;-73
2024/02/04 11:17:07;;;;;;;6.80;3.00;;;10.10;1.00;;;;;;5090643;28;21045;-74
2024/02/04 11:19:48;;;;;;;2.40;1.73;;;10.00;1.00;;;;;;5085788;28;20465;-73
2024/02/04 11:22:54;;;;;;;5.90;1.87;;;9.80;1.00;;;;;;5087891;28;20531;-73
2024/02/04 11:25:44;;;;;;;3.97;2.97;;;9.80;1.00;;;;;;5085725;28;20507;-73
2024/02/04 11:28:16;;;;;;;7.60;2.37;;;9.80;1.00;;;;;;5090466;28;20890;-71
2024/02/04 11:30:46;;;;;;;4.00;1.97;;;9.80;1.00;;;;;;5090858;28;20475;-74
2024/02/04 11:33:14;;;;;;;4.63;1.73;;;9.90;1.00;;;;;;5088571;28;20451;-73
2024/02/04 11:35:41;;;;;;;6.43;2.37;;;9.90;1.00;;;;;;5087846;28;20564;-77
2024/02/04 11:38:09;;;;;;;5.00;2.37;;;9.90;1.00;;;;;;5090861;28;20454;-74
2024/02/04 11:40:38;;;;;;;5.90;2.43;;;9.90;1.00;;;;;;5093513;28;20470;-79
2024/02/04 11:43:06;;;;;;;6.60;2.17;;;9.90;1.00;;;;;;5087820;28;20545;-77
2024/02/04 11:45:33;;;;;;;3.97;1.70;;;9.80;1.00;;;;;;5089280;28;20516;-76
2024/02/04 11:48:03;;;;;;;6.97;2.43;;;9.60;1.00;;;;;;5088059;28;20636;-77
2024/02/04 11:50:31;;;;;;;8.57;2.67;;;9.60;1.00;;;;;;5086872;28;21016;-76
2024/02/04 11:53:08;;;;;;;5.30;2.60;;;9.50;1.00;;;;;;5094786;28;20419;-79
2024/02/04 11:55:36;;;;;;;9.00;2.07;;;9.50;1.00;;;;;;5089568;28;20455;-75
2024/02/04 11:58:03;;;;;;;4.00;2.17;;;9.50;1.00;;;;;;5088004;28;20418;-75
2024/02/04 12:00:30;;;;;;;3.67;2.47;;;9.50;1.00;;;;;;5090328;28;21037;-77
2024/02/04 12:03:06;;;;;;;6.00;2.60;;;9.60;1.00;;;;;;5088084;28;20419;-78
2024/02/04 12:05:34;;;;;;;4.63;1.93;;;9.80;1.00;;;;;;5091664;28;20426;-77
2024/02/04 12:08:05;;;;;;;7.93;2.37;;;9.80;1.00;;;;;;5087702;28;20432;-80
2024/02/04 12:10:33;;;;;;;7.40;2.00;;;9.90;1.00;;;;;;5095533;27;20467;-79
2024/02/04 12:13:00;;;;;;;3.83;2.30;;;10.00;1.00;;;;;;5111332;27;20465;-78
2024/02/04 12:15:27;;;;;;;2.90;1.57;;;10.10;1.00;;;;;;5105043;27;20480;-76
2024/02/04 12:17:54;;;;;;;7.90;2.73;;;10.20;1.00;;;;;;5110143;27;20483;-77
2024/02/04 12:20:22;;;;;;;5.13;2.00;;;10.10;1.00;;;;;;5108131;27;22947;-73
2024/02/04 12:22:49;;;;;;;5.83;2.03;;;10.10;1.00;;;;;;5107944;27;20457;-76
2024/02/04 12:25:18;;;;;;;5.17;2.27;;;10.10;1.00;;;;;;5109728;27;20458;-76
2024/02/04 12:27:47;;;;;;;6.87;2.40;;;10.00;1.00;;;;;;5111214;27;20462;-76
2024/02/04 12:30:15;;;;;;;4.80;1.97;;;9.90;1.00;;;;;;5111205;27;20620;-75
2024/02/04 12:32:42;;;;;;;5.03;1.93;;;9.80;1.00;;;;;;5110593;27;20473;-74
2024/02/04 12:35:09;;;;;;;5.67;2.10;;;9.70;1.00;;;;;;5090917;28;20437;-77
2024/02/04 12:37:37;;;;;;;7.23;2.47;;;9.60;1.00;;;;;;5107292;27;20563;-77
2024/02/04 12:40:06;;;;;;;3.33;1.70;;;9.60;1.00;;;;;;5104793;27;21318;-76
2024/02/04 12:42:33;;;;;;;3.13;1.83;;;9.40;1.00;;;;;;5109174;27;20447;-76
2024/02/04 12:45:00;;;;;;;5.40;3.00;;;9.30;1.00;;;;;;5111341;27;20457;-71
2024/02/04 12:47:28;;;;;;;8.00;2.30;;;9.30;1.00;;;;;;5109128;27;20450;-71
2024/02/04 12:50:02;;;;;;;5.63;2.40;;;9.30;1.00;;;;;;5110901;28;20551;-71
2024/02/04 12:52:30;;;;;;;6.33;2.10;;;9.30;1.00;;;;;;5110862;27;20446;-71
2024/02/04 12:54:59;;;;;;;3.80;2.63;;;9.30;1.00;;;;;;5110909;28;20493;-72
2024/02/04 12:57:27;;;;;;;6.00;1.60;;;9.40;1.00;;;;;;5104920;27;20454;-71
2024/02/04 13:00:05;;;;;;;3.40;1.80;;;9.40;1.00;;;;;;5109539;27;21035;-72
2024/02/04 13:02:33;;;;;;;4.03;2.00;;;9.40;1.00;;;;;;5108575;28;20563;-73
2024/02/04 13:05:00;;;;;;;4.60;2.00;;;9.50;1.00;;;;;;5107952;27;20469;-72
2024/02/04 13:07:27;;;;;;;4.83;2.10;;;9.40;1.00;;;;;;5107293;27;20554;-73
2024/02/04 13:10:00;;;;;;;3.80;1.67;;;9.40;1.00;;;;;;5101146;28;20492;-73